Time;durP1;ratioP1;P1;durP2;ratioP2;P2;SDS_P1;SDS_P2;PMS_P1;PMS_P2;Temp;Humidity;BMP_temperature;BMP_pressure;BME280_temperature;BME280_humidity;BME280_pressure;Samples;Min_cycle;Max_cycle;Signal;HPM_P1;HPM_P2
2022/03/12 00:02:10;;;;;;;;;;;7.90;99.90;;;;;;5024336;28;19909;-84
2022/03/12 00:04:35;;;;;;;;;;;8.00;99.90;;;;;;5022928;28;20361;-84
2022/03/12 00:07:02;;;;;;;;;;;8.00;99.90;;;;;;5013321;28;19909;-85
2022/03/12 00:09:27;;;;;;;;;;;7.90;99.90;;;;;;5028824;28;20380;-85
2022/03/12 00:11:58;;;;;;;;;;;7.90;99.90;;;;;;5033045;28;19976;-85
2022/03/12 00:14:24;;;;;;;;;;;8.00;99.90;;;;;;5032245;28;19912;-84
2022/03/12 00:16:49;;;;;;;;;;;7.90;99.90;;;;;;5033663;28;19909;-84
2022/03/12 00:19:15;;;;;;;;;;;7.90;99.90;;;;;;5031056;28;20075;-84
2022/03/12 00:21:42;;;;;;;;;;;8.00;99.90;;;;;;5037113;28;19905;-84
2022/03/12 00:24:10;;;;;;;;;;;7.90;99.90;;;;;;5036716;28;20418;-84
2022/03/12 00:26:38;;;;;;;;;;;7.90;99.90;;;;;;5028964;28;19916;-85
2022/03/12 00:29:04;;;;;;;;;;;7.90;99.90;;;;;;5035085;28;19963;-85
2022/03/12 00:31:30;;;;;;;;;;;7.90;99.90;;;;;;5035469;28;19940;-85
2022/03/12 00:33:55;;;;;;;;;;;8.00;99.90;;;;;;5035649;28;21408;-85
2022/03/12 00:36:21;;;;;;;;;;;8.00;99.90;;;;;;5035289;28;19905;-85
2022/03/12 00:38:47;;;;;;;;;;;7.90;99.90;;;;;;5033540;28;20003;-84
2022/03/12 00:41:13;;;;;;;;;;;7.80;99.90;;;;;;5028695;28;19951;-84
2022/03/12 00:43:39;;;;;;;;;;;7.80;99.90;;;;;;5037140;28;19916;-84
2022/03/12 00:46:07;;;;;;;;;;;7.90;99.90;;;;;;5036931;28;19905;-84
2022/03/12 00:48:34;;;;;;;;;;;7.80;99.90;;;;;;5035506;28;19952;-85
2022/03/12 00:50:59;;;;;;;;;;;7.90;99.90;;;;;;5027146;28;19932;-85
2022/03/12 00:53:25;;;;;;;;;;;7.80;99.90;;;;;;5028813;28;19916;-85
2022/03/12 00:55:50;;;;;;;;;;;7.70;99.90;;;;;;5015776;28;19913;-85
2022/03/12 00:58:16;;;;;;;;;;;7.70;99.90;;;;;;5029755;28;19916;-84
2022/03/12 01:00:41;;;;;;;;;;;7.80;99.90;;;;;;5021015;28;19918;-85
2022/03/12 01:03:14;;;;;;;;;;;7.80;99.90;;;;;;5035463;28;19996;-85
2022/03/12 01:05:49;;;;;;;;;;;7.80;99.90;;;;;;5035040;28;19913;-85
2022/03/12 01:08:15;;;;;;;;;;;7.70;99.90;;;;;;5027704;28;19916;-84
2022/03/12 01:10:40;;;;;;;;;;;7.60;99.90;;;;;;5036449;28;19924;-85
2022/03/12 01:13:06;;;;;;;;;;;7.70;99.90;;;;;;5024255;28;19913;-84
2022/03/12 01:15:32;;;;;;;;;;;7.70;99.90;;;;;;5016052;28;19905;-85
2022/03/12 01:17:58;;;;;;;;;;;7.70;99.90;;;;;;5032993;28;19936;-84
2022/03/12 01:20:23;;;;;;;;;;;7.70;99.90;;;;;;5031225;28;19999;-85
2022/03/12 01:22:49;;;;;;;;;;;7.80;99.90;;;;;;5023401;28;19913;-85
2022/03/12 01:25:14;;;;;;;;;;;7.70;99.90;;;;;;5035547;28;20330;-84
2022/03/12 01:27:40;;;;;;;;;;;7.80;99.90;;;;;;5035717;28;19920;-85
2022/03/12 01:30:07;;;;;;;;;;;7.70;99.90;;;;;;5034549;28;20345;-85
2022/03/12 01:32:32;;;;;;;;;;;7.70;99.90;;;;;;5034521;28;19917;-85
2022/03/12 01:34:58;;;;;;;;;;;7.70;99.90;;;;;;5027861;28;20296;-85
2022/03/12 01:37:23;;;;;;;;;;;7.70;99.90;;;;;;5036342;28;19912;-85
2022/03/12 01:39:49;;;;;;;;;;;7.60;99.90;;;;;;5035608;28;20003;-84
2022/03/12 01:42:15;;;;;;;;;;;7.60;99.90;;;;;;5034435;28;19906;-85
2022/03/12 01:44:41;;;;;;;;;;;7.60;99.90;;;;;;5034726;28;20349;-84
2022/03/12 01:47:08;;;;;;;;;;;7.60;99.90;;;;;;5026407;28;20369;-85
2022/03/12 01:49:34;;;;;;;;;;;7.70;99.90;;;;;;5035842;28;19959;-85
2022/03/12 01:51:59;;;;;;;;;;;7.60;99.90;;;;;;5033523;28;19936;-84
2022/03/12 01:54:25;;;;;;;;;;;7.70;99.90;;;;;;5026303;28;19909;-85
2022/03/12 01:56:53;;;;;;;;;;;7.50;99.90;;;;;;5019714;28;20333;-84
2022/03/12 01:59:19;;;;;;;;;;;7.50;99.90;;;;;;5033461;28;19972;-85
2022/03/12 02:01:46;;;;;;;;;;;7.50;99.90;;;;;;5034010;28;20254;-85
2022/03/12 02:04:11;;;;;;;;;;;7.60;99.90;;;;;;5035530;28;19905;-84
2022/03/12 02:06:43;;;;;;;;;;;7.50;99.90;;;;;;5034024;28;20250;-84
2022/03/12 02:09:09;;;;;;;;;;;7.60;99.90;;;;;;5035228;28;19912;-85
2022/03/12 02:11:34;;;;;;;;;;;7.60;99.90;;;;;;5035271;28;20566;-85
2022/03/12 02:14:03;;;;;;;;;;;7.50;99.90;;;;;;5053244;22;19919;-82
2022/03/12 02:16:29;;;;;;;;;;;7.50;99.90;;;;;;5044523;28;19900;-81
2022/03/12 02:18:55;;;;;;;;;;;7.50;99.90;;;;;;5050382;28;19905;-81
2022/03/12 02:21:33;;;;;;;;;;;7.50;99.90;;;;;;5054971;28;19909;-81
2022/03/12 02:23:59;;;;;;;;;;;7.40;99.90;;;;;;5039650;28;19901;-81
2022/03/12 02:26:24;;;;;;;;;;;7.50;99.90;;;;;;5039991;28;19924;-82
2022/03/12 02:28:50;;;;;;;;;;;7.40;99.90;;;;;;5044991;28;19902;-81
2022/03/12 02:31:15;;;;;;;;;;;7.50;99.90;;;;;;5041637;28;19912;-81
2022/03/12 02:33:42;;;;;;;;;;;7.40;99.90;;;;;;5054456;28;19944;-81
2022/03/12 02:36:11;;;;;;;;;;;7.30;99.90;;;;;;5038999;28;20346;-81
2022/03/12 02:38:36;;;;;;;;;;;7.30;99.90;;;;;;5036965;28;19913;-81
2022/03/12 02:41:10;;;;;;;;;;;7.40;99.90;;;;;;5037843;28;19972;-81
2022/03/12 02:43:37;;;;;;;;;;;7.40;99.90;;;;;;5037828;28;19921;-81
2022/03/12 02:46:02;;;;;;;;;;;7.40;99.90;;;;;;5038547;28;19981;-81
2022/03/12 02:48:28;;;;;;;;;;;7.40;99.90;;;;;;5040549;28;19901;-81
2022/03/12 02:50:54;;;;;;;;;;;7.40;99.90;;;;;;5045781;28;19931;-81
2022/03/12 02:53:19;;;;;;;;;;;7.40;99.90;;;;;;5038713;28;19963;-82
2022/03/12 02:55:46;;;;;;;;;;;7.40;99.90;;;;;;5044545;28;19901;-81
2022/03/12 02:58:14;;;;;;;;;;;7.40;99.90;;;;;;5037441;28;19902;-81
2022/03/12 03:00:39;;;;;;;;;;;7.40;99.90;;;;;;5046666;28;19915;-81
2022/03/12 03:03:06;;;;;;;;;;;7.40;99.90;;;;;;5042516;28;19901;-81
2022/03/12 03:05:45;;;;;;;;;;;7.40;99.90;;;;;;5049769;28;19897;-81
2022/03/12 03:08:12;;;;;;;;;;;7.40;99.90;;;;;;5035413;28;19942;-81
2022/03/12 03:10:38;;;;;;;;;;;7.30;99.90;;;;;;5041784;28;19932;-81
2022/03/12 03:13:30;;;;;;;;;;;7.10;99.90;;;;;;5053726;28;19910;-82
2022/03/12 03:15:59;;;;;;;;;;;7.10;99.90;;;;;;5047841;28;19902;-82
2022/03/12 03:18:27;;;;;;;;;;;7.10;99.90;;;;;;5051551;28;19917;-82
2022/03/12 03:20:53;;;;;;;;;;;7.10;99.90;;;;;;5054566;28;19921;-82
2022/03/12 03:23:21;;;;;;;;;;;7.20;99.90;;;;;;5052719;28;19901;-82
2022/03/12 03:25:47;;;;;;;;;;;7.00;99.90;;;;;;5037631;28;19901;-82
2022/03/12 03:28:13;;;;;;;;;;;7.00;99.90;;;;;;5041315;28;19913;-82
2022/03/12 03:30:39;;;;;;;;;;;7.00;99.90;;;;;;5049262;28;19912;-82
2022/03/12 03:33:09;;;;;;;;;;;7.00;99.90;;;;;;5042539;28;19901;-82
2022/03/12 03:35:36;;;;;;;;;;;6.90;99.90;;;;;;5043464;28;19911;-82
2022/03/12 03:38:02;;;;;;;;;;;6.90;99.90;;;;;;5038625;28;19922;-82
2022/03/12 03:40:27;;;;;;;;;;;6.80;99.90;;;;;;5037988;28;19952;-82
2022/03/12 03:42:53;;;;;;;;;;;6.70;99.90;;;;;;5020372;28;19961;-82
2022/03/12 03:45:23;;;;;;;;;;;6.70;99.90;;;;;;5053659;28;19909;-82
2022/03/12 03:47:49;;;;;;;;;;;6.60;99.90;;;;;;5044960;28;19971;-82
2022/03/12 03:50:15;;;;;;;;;;;6.40;1.00;;;;;;5036382;28;19939;-82
2022/03/12 03:52:40;;;;;;;;;;;6.20;1.00;;;;;;5043688;28;19933;-82
2022/03/12 03:55:06;;;;;;;;;;;6.20;1.00;;;;;;5047403;28;19969;-82
2022/03/12 03:57:32;;;;;;;;;;;6.20;1.00;;;;;;5028089;28;19913;-82
2022/03/12 03:59:57;;;;;;;;;;;6.20;1.00;;;;;;5045842;28;19917;-82
2022/03/12 04:02:23;;;;;;;;;;;6.20;99.90;;;;;;5042064;28;19953;-82
2022/03/12 04:04:49;;;;;;;;;;;6.30;99.90;;;;;;5030690;28;19902;-82
2022/03/12 04:07:15;;;;;;;;;;;6.30;99.90;;;;;;5045496;28;19988;-82
2022/03/12 04:09:42;;;;;;;;;;;6.30;99.90;;;;;;5051859;28;19913;-82
2022/03/12 04:12:08;;;;;;;;;;;6.30;99.90;;;;;;5035985;28;19966;-82
2022/03/12 04:14:33;;;;;;;;;;;6.20;99.90;;;;;;5033002;28;19920;-82
2022/03/12 04:17:00;;;;;;;;;;;6.20;99.90;;;;;;5024106;28;19928;-83
2022/03/12 04:19:29;;;;;;;;;;;6.30;99.90;;;;;;5043747;28;19965;-82
2022/03/12 04:21:56;;;;;;;;;;;6.20;99.90;;;;;;5040628;28;19937;-82
2022/03/12 04:24:24;;;;;;;;;;;6.20;99.90;;;;;;5043880;28;19956;-82
2022/03/12 04:26:51;;;;;;;;;;;6.20;99.90;;;;;;5055418;28;19911;-82
2022/03/12 04:29:18;;;;;;;;;;;6.20;99.90;;;;;;5048423;28;19914;-82
2022/03/12 04:31:49;;;;;;;;;;;6.20;99.90;;;;;;5036036;28;19927;-82
2022/03/12 04:34:17;;;;;;;;;;;6.20;99.90;;;;;;5028416;28;19901;-82
2022/03/12 04:36:44;;;;;;;;;;;6.20;99.90;;;;;;5042847;28;19921;-82
2022/03/12 04:39:10;;;;;;;;;;;6.20;99.90;;;;;;5029926;28;19962;-82
2022/03/12 04:41:36;;;;;;;;;;;6.20;99.90;;;;;;5036493;28;19905;-82
2022/03/12 04:44:04;;;;;;;;;;;6.10;99.90;;;;;;5044118;28;19940;-82
2022/03/12 04:46:29;;;;;;;;;;;6.20;99.90;;;;;;5044257;28;19912;-82
2022/03/12 04:48:55;;;;;;;;;;;6.20;99.90;;;;;;5028877;28;19917;-82
2022/03/12 04:51:20;;;;;;;;;;;6.30;99.90;;;;;;5042881;28;19898;-82
2022/03/12 04:53:46;;;;;;;;;;;6.20;99.90;;;;;;5044349;28;19901;-82
2022/03/12 04:56:11;;;;;;;;;;;6.20;99.90;;;;;;5047278;28;19924;-82
2022/03/12 04:58:37;;;;;;;;;;;6.20;99.90;;;;;;5042226;28;19940;-82
2022/03/12 05:01:03;;;;;;;;;;;6.30;99.90;;;;;;5029439;28;19917;-82
2022/03/12 05:03:29;;;;;;;;;;;6.30;99.90;;;;;;5052169;28;19968;-82
2022/03/12 05:05:54;;;;;;;;;;;6.30;99.90;;;;;;5036331;28;19974;-82
2022/03/12 05:08:21;;;;;;;;;;;6.20;99.90;;;;;;5058182;28;19901;-82
2022/03/12 05:10:50;;;;;;;;;;;6.30;99.90;;;;;;5059623;28;19908;-82
2022/03/12 05:13:22;;;;;;;;;;;6.30;99.90;;;;;;5045392;28;19956;-82
2022/03/12 05:15:52;;;;;;;;;;;6.30;99.90;;;;;;5049963;28;19972;-82
2022/03/12 05:18:19;;;;;;;;;;;6.40;99.90;;;;;;5034038;28;19916;-82
2022/03/12 05:20:46;;;;;;;;;;;6.20;99.90;;;;;;5047862;28;19913;-82
2022/03/12 05:23:13;;;;;;;;;;;6.50;99.90;;;;;;5034394;28;19914;-82
2022/03/12 05:25:42;;;;;;;;;;;6.30;99.90;;;;;;5026945;28;19912;-82
2022/03/12 05:28:09;;;;;;;;;;;6.30;99.90;;;;;;5033368;28;19905;-81
2022/03/12 05:30:35;;;;;;;;;;;6.20;99.90;;;;;;5042621;28;19962;-82
2022/03/12 05:33:00;;;;;;;;;;;6.30;99.90;;;;;;5050703;28;19975;-82
2022/03/12 05:35:26;;;;;;;;;;;6.30;99.90;;;;;;5029267;28;19906;-82
2022/03/12 05:37:53;;;;;;;;;;;6.00;99.90;;;;;;5026029;28;20326;-82
2022/03/12 05:40:19;;;;;;;;;;;5.90;99.90;;;;;;5024478;28;19914;-83
2022/03/12 05:42:46;;;;;;;;;;;5.80;99.90;;;;;;5024335;28;19909;-83
2022/03/12 05:45:12;;;;;;;;;;;5.70;99.90;;;;;;5031122;28;19920;-82
2022/03/12 05:47:39;;;;;;;;;;;5.50;99.90;;;;;;5024219;28;19941;-82
2022/03/12 05:50:10;;;;;;;;;;;5.40;99.90;;;;;;5030673;28;19909;-82
2022/03/12 05:52:37;;;;;;;;;;;5.30;99.90;;;;;;5031522;28;19936;-82
2022/03/12 05:55:06;;;;;;;;;;;5.30;99.90;;;;;;5016042;28;19909;-82
2022/03/12 05:57:32;;;;;;;;;;;5.20;99.90;;;;;;5033201;28;19913;-82
2022/03/12 06:00:01;;;;;;;;;;;5.10;99.90;;;;;;5044992;28;19913;-82
2022/03/12 06:02:28;;;;;;;;;;;5.10;99.90;;;;;;5038442;28;19905;-82
2022/03/12 06:04:58;;;;;;;;;;;5.20;99.90;;;;;;5046075;28;19959;-82
2022/03/12 06:07:27;;;;;;;;;;;5.20;99.90;;;;;;5037889;28;19912;-82
2022/03/12 06:09:56;;;;;;;;;;;5.10;99.90;;;;;;5036981;28;19917;-82
2022/03/12 06:12:26;;;;;;;;;;;5.00;99.90;;;;;;5054755;28;19901;-82
2022/03/12 06:14:57;;;;;;;;;;;5.00;99.90;;;;;;5048752;28;19978;-82
2022/03/12 06:17:24;;;;;;;;;;;4.90;99.90;;;;;;5057684;28;19905;-82
2022/03/12 06:19:50;;;;;;;;;;;4.80;99.90;;;;;;5058187;28;19908;-82
2022/03/12 06:22:16;;;;;;;;;;;4.90;99.90;;;;;;5040643;28;19913;-82
2022/03/12 06:24:42;;;;;;;;;;;4.70;99.90;;;;;;5047391;28;19920;-82
2022/03/12 06:27:07;;;;;;;;;;;4.60;99.90;;;;;;5044792;28;19901;-82
2022/03/12 06:29:35;;;;;;;;;;;4.70;99.90;;;;;;5054791;28;19902;-82
2022/03/12 06:32:00;;;;;;;;;;;4.70;99.90;;;;;;5043921;28;19909;-82
2022/03/12 06:34:26;;;;;;;;;;;4.70;99.90;;;;;;5030969;28;19936;-82
2022/03/12 06:36:51;;;;;;;;;;;4.70;99.90;;;;;;5038320;28;19959;-82
2022/03/12 06:39:17;;;;;;;;;;;4.80;99.90;;;;;;5046588;28;19901;-83
2022/03/12 06:41:45;;;;;;;;;;;4.90;99.90;;;;;;5046230;28;19921;-82
2022/03/12 06:44:11;;;;;;;;;;;5.00;99.90;;;;;;5027071;28;19985;-82
2022/03/12 06:46:37;;;;;;;;;;;5.00;99.90;;;;;;5030675;28;19901;-82
2022/03/12 06:49:05;;;;;;;;;;;5.10;99.90;;;;;;5049678;28;19981;-82
2022/03/12 06:51:31;;;;;;;;;;;5.30;99.90;;;;;;5056304;28;19933;-83
2022/03/12 06:53:57;;;;;;;;;;;5.50;99.90;;;;;;5056267;28;19947;-83
2022/03/12 06:56:24;;;;;;;;;;;5.50;99.90;;;;;;5048418;28;19909;-83
2022/03/12 06:58:49;;;;;;;;;;;5.60;99.90;;;;;;5048288;28;19897;-83
2022/03/12 07:01:15;;;;;;;;;;;5.80;99.90;;;;;;5037247;28;19909;-83
2022/03/12 07:03:40;;;;;;;;;;;5.90;99.90;;;;;;5037453;28;19902;-83
2022/03/12 07:06:07;;;;;;;;;;;6.00;99.90;;;;;;5050403;28;19968;-83
2022/03/12 07:08:33;;;;;;;;;;;6.30;99.90;;;;;;5049190;28;19912;-83
2022/03/12 07:11:00;;;;;;;;;;;6.40;99.90;;;;;;5053383;28;19928;-83
2022/03/12 07:13:26;;;;;;;;;;;6.60;99.90;;;;;;5037750;28;19909;-83
2022/03/12 07:15:51;;;;;;;;;;;7.00;99.90;;;;;;5036444;28;19960;-83
2022/03/12 07:18:17;;;;;;;;;;;7.50;99.90;;;;;;5036870;28;19901;-83
2022/03/12 07:20:43;;;;;;;;;;;9.20;99.90;;;;;;5029639;28;19945;-82
2022/03/12 07:23:09;;;;;;;;;;;10.30;99.90;;;;;;5015968;28;19918;-80
2022/03/12 07:25:35;;;;;;;;;;;11.90;99.90;;;;;;5028101;28;19905;-80
2022/03/12 07:28:00;;;;;;;;;;;12.30;99.90;;;;;;5035066;28;19909;-81
2022/03/12 07:30:26;;;;;;;;;;;12.40;99.90;;;;;;5031392;28;19909;-81
2022/03/12 07:32:52;;;;;;;;;;;12.80;99.90;;;;;;5027866;28;19905;-81
2022/03/12 07:35:18;;;;;;;;;;;13.50;99.90;;;;;;5034101;28;19914;-81
2022/03/12 07:37:44;;;;;;;;;;;14.40;99.90;;;;;;5029379;28;20126;-81
2022/03/12 07:40:12;;;;;;;;;;;15.20;99.90;;;;;;5032429;28;19905;-82
2022/03/12 07:42:38;;;;;;;;;;;15.10;99.90;;;;;;5025582;28;19918;-82
2022/03/12 07:45:04;;;;;;;;;;;15.70;99.90;;;;;;5026253;28;19973;-82
2022/03/12 07:47:29;;;;;;;;;;;17.00;99.90;;;;;;5032218;28;19936;-82
2022/03/12 07:49:56;;;;;;;;;;;17.40;99.90;;;;;;5042349;28;19909;-82
2022/03/12 07:52:22;;;;;;;;;;;17.10;99.90;;;;;;5046413;28;19917;-82
2022/03/12 07:54:47;;;;;;;;;;;18.70;99.90;;;;;;5056509;28;19901;-81
2022/03/12 07:57:14;;;;;;;;;;;19.40;99.90;;;;;;5048232;28;19927;-81
2022/03/12 07:59:39;;;;;;;;;;;18.70;99.90;;;;;;5048522;28;19909;-81
2022/03/12 08:02:06;;;;;;;;;;;18.10;99.90;;;;;;5048322;28;19943;-81
2022/03/12 08:04:33;;;;;;;;;;;18.80;99.90;;;;;;5044760;28;19933;-81
2022/03/12 08:07:02;;;;;;;;;;;17.90;99.90;;;;;;5037771;28;19922;-81
2022/03/12 08:09:31;;;;;;;;;;;17.50;99.90;;;;;;5045370;28;19923;-81
2022/03/12 08:12:00;;;;;;;;;;;16.60;99.90;;;;;;5037318;28;19902;-81
2022/03/12 08:14:25;;;;;;;;;;;16.50;99.90;;;;;;5055100;28;19909;-81
2022/03/12 08:16:52;;;;;;;;;;;16.70;99.90;;;;;;5043163;28;19908;-81
2022/03/12 08:19:18;;;;;;;;;;;16.70;99.90;;;;;;5045906;28;19901;-81
2022/03/12 08:21:44;;;;;;;;;;;16.10;99.90;;;;;;5043937;28;19945;-81
2022/03/12 08:24:12;;;;;;;;;;;15.90;99.90;;;;;;5045379;28;19901;-81
2022/03/12 08:26:41;;;;;;;;;;;17.40;99.90;;;;;;5042768;28;19916;-81
2022/03/12 08:29:07;;;;;;;;;;;17.40;99.90;;;;;;5044693;28;19921;-81
2022/03/12 08:31:34;;;;;;;;;;;17.30;99.90;;;;;;5031057;28;19909;-82
2022/03/12 08:33:59;;;;;;;;;;;17.90;99.90;;;;;;5031305;28;19908;-83
2022/03/12 08:36:24;;;;;;;;;;;18.30;99.90;;;;;;5035425;28;19941;-82
2022/03/12 08:38:50;;;;;;;;;;;18.30;99.90;;;;;;5040036;28;19928;-83
2022/03/12 08:41:16;;;;;;;;;;;17.40;99.90;;;;;;5042586;28;19901;-83
2022/03/12 08:43:41;;;;;;;;;;;17.60;99.90;;;;;;5048473;28;19924;-82
2022/03/12 08:46:07;;;;;;;;;;;17.10;99.90;;;;;;5047810;28;19902;-82
2022/03/12 08:48:33;;;;;;;;;;;17.10;99.90;;;;;;5049811;28;19913;-82
2022/03/12 08:50:59;;;;;;;;;;;17.10;99.90;;;;;;5050812;28;19920;-82
2022/03/12 08:53:24;;;;;;;;;;;18.10;99.90;;;;;;5049820;28;19933;-82
2022/03/12 08:55:50;;;;;;;;;;;17.50;99.90;;;;;;5039299;28;20035;-82
2022/03/12 08:58:16;;;;;;;;;;;18.00;99.90;;;;;;5054829;28;19897;-82
2022/03/12 09:00:42;;;;;;;;;;;18.30;99.90;;;;;;5059546;28;19932;-82
2022/03/12 09:03:09;;;;;;;;;;;18.30;99.90;;;;;;5055335;28;19918;-82
2022/03/12 09:05:34;;;;;;;;;;;18.10;99.90;;;;;;5040087;28;19901;-82
2022/03/12 09:08:00;;;;;;;;;;;19.00;99.90;;;;;;5051973;28;19960;-82
2022/03/12 09:10:25;;;;;;;;;;;19.90;99.90;;;;;;5045007;28;19909;-82
2022/03/12 09:12:51;;;;;;;;;;;20.70;99.90;;;;;;5056083;28;19901;-82
2022/03/12 09:15:20;;;;;;;;;;;21.10;99.90;;;;;;5048179;28;19901;-82
2022/03/12 09:17:46;;;;;;;;;;;20.40;99.90;;;;;;5048550;28;19901;-82
2022/03/12 09:20:12;;;;;;;;;;;20.40;99.90;;;;;;5058007;28;19923;-82
2022/03/12 09:22:39;;;;;;;;;;;20.30;99.90;;;;;;5052623;28;19901;-82
2022/03/12 09:25:08;;;;;;;;;;;20.50;99.90;;;;;;5047433;28;19901;-82
2022/03/12 09:27:33;;;;;;;;;;;20.80;99.90;;;;;;5039477;28;19909;-82
2022/03/12 09:29:59;;;;;;;;;;;20.90;99.90;;;;;;5041711;28;19948;-82
2022/03/12 09:32:25;;;;;;;;;;;22.00;99.90;;;;;;5045143;28;19901;-82
2022/03/12 09:34:51;;;;;;;;;;;23.90;99.90;;;;;;5040058;28;19925;-82
2022/03/12 09:37:16;;;;;;;;;;;23.70;99.90;;;;;;5040189;28;19980;-82
2022/03/12 09:39:42;;;;;;;;;;;22.70;99.90;;;;;;5040220;28;19916;-82
2022/03/12 09:42:07;;;;;;;;;;;23.30;99.90;;;;;;5048001;28;19940;-82
2022/03/12 09:44:33;;;;;;;;;;;23.70;99.90;;;;;;5047353;28;19913;-83
2022/03/12 09:46:58;;;;;;;;;;;24.00;99.90;;;;;;5047374;28;19924;-82
2022/03/12 09:49:24;;;;;;;;;;;24.10;99.90;;;;;;5040052;28;19902;-82
2022/03/12 09:51:49;;;;;;;;;;;26.60;99.90;;;;;;5046668;28;19908;-82
2022/03/12 09:54:16;;;;;;;;;;;26.10;99.90;;;;;;5024331;28;19972;-83
2022/03/12 09:56:43;;;;;;;;;;;25.10;99.90;;;;;;5035302;28;19917;-83
2022/03/12 09:59:08;;;;;;;;;;;24.30;99.90;;;;;;5036966;28;20260;-82
2022/03/12 10:01:33;;;;;;;;;;;24.80;99.90;;;;;;5033808;28;19913;-83
2022/03/12 10:03:59;;;;;;;;;;;24.50;99.90;;;;;;5034219;28;19981;-83
2022/03/12 10:06:25;;;;;;;;;;;25.00;99.90;;;;;;5033938;28;19909;-83
2022/03/12 10:08:52;;;;;;;;;;;24.50;99.90;;;;;;5044889;28;19928;-82
2022/03/12 10:11:18;;;;;;;;;;;24.90;99.90;;;;;;5035356;28;19917;-83
2022/03/12 10:13:44;;;;;;;;;;;25.60;99.90;;;;;;5017871;28;19921;-80
2022/03/12 10:16:09;;;;;;;;;;;24.20;99.90;;;;;;5019000;28;19906;-84
2022/03/12 10:18:36;;;;;;;;;;;24.20;99.90;;;;;;5026555;28;19910;-80
2022/03/12 10:21:01;;;;;;;;;;;24.70;99.90;;;;;;5024212;28;19936;-80
2022/03/12 10:23:27;;;;;;;;;;;24.00;99.90;;;;;;5016631;28;20417;-81
2022/03/12 10:25:52;;;;;;;;;;;23.30;99.90;;;;;;5024460;28;19909;-83
2022/03/12 10:28:18;;;;;;;;;;;22.80;99.90;;;;;;5040858;28;19920;-82
2022/03/12 10:30:44;;;;;;;;;;;22.90;99.90;;;;;;5036891;28;19921;-82
2022/03/12 10:33:13;;;;;;;;;;;22.00;99.90;;;;;;5030357;28;19905;-82
2022/03/12 10:35:40;;;;;;;;;;;22.80;99.90;;;;;;5030974;28;19916;-82
2022/03/12 10:38:10;;;;;;;;;;;22.10;99.90;;;;;;5029921;28;19909;-82
2022/03/12 10:40:36;;;;;;;;;;;20.80;99.90;;;;;;5040727;28;19974;-82
2022/03/12 10:43:05;;;;;;;;;;;20.10;99.90;;;;;;5038497;28;19909;-82
2022/03/12 10:45:50;;;;;;;;;;;20.20;99.90;;;;;;5036245;28;19916;-82
2022/03/12 10:48:20;;;;;;;;;;;20.10;99.90;;;;;;5034315;28;19909;-82
2022/03/12 10:50:47;;;;;;;;;;;19.50;99.90;;;;;;5054075;28;19905;-82
2022/03/12 10:53:14;;;;;;;;;;;19.20;99.90;;;;;;5047388;28;19913;-82
2022/03/12 10:55:41;;;;;;;;;;;18.60;99.90;;;;;;5041925;28;19917;-85
2022/03/12 10:58:20;;;;;;;;;;;18.00;99.90;;;;;;5035282;28;19912;-82
2022/03/12 11:00:47;;;;;;;;;;;18.30;99.90;;;;;;5039735;28;19914;-83
2022/03/12 11:03:14;;;;;;;;;;;18.30;99.90;;;;;;5036151;28;19909;-82
2022/03/12 11:05:42;;;;;;;;;;;17.60;99.90;;;;;;5032081;28;19914;-83
2022/03/12 11:08:10;;;;;;;;;;;17.70;99.90;;;;;;5041150;28;19920;-83
2022/03/12 11:10:42;;;;;;;;;;;17.60;99.90;;;;;;5030828;28;19921;-83
2022/03/12 11:13:09;;;;;;;;;;;17.80;99.90;;;;;;5054310;28;19920;-83
2022/03/12 11:15:35;;;;;;;;;;;18.00;99.90;;;;;;5043512;28;19933;-83
2022/03/12 11:18:05;;;;;;;;;;;18.00;99.90;;;;;;5039557;28;19952;-82
2022/03/12 11:20:35;;;;;;;;;;;17.60;99.90;;;;;;5051684;28;19904;-82
2022/03/12 11:23:16;;;;;;;;;;;17.60;99.90;;;;;;5026268;28;19946;-82
2022/03/12 11:25:54;;;;;;;;;;;17.50;99.90;;;;;;5022709;28;19952;-82
2022/03/12 11:28:20;;;;;;;;;;;18.00;99.90;;;;;;5044117;28;19919;-82
2022/03/12 11:30:46;;;;;;;;;;;17.70;99.90;;;;;;5039040;28;19988;-82
2022/03/12 11:33:12;;;;;;;;;;;17.30;99.90;;;;;;5031777;28;19963;-82
2022/03/12 11:35:39;;;;;;;;;;;17.50;99.90;;;;;;5037907;28;19910;-82
2022/03/12 11:38:12;;;;;;;;;;;17.70;99.90;;;;;;5039434;28;20296;-82
2022/03/12 11:40:44;;;;;;;;;;;18.00;99.90;;;;;;5036004;28;19916;-83
2022/03/12 11:43:21;;;;;;;;;;;18.20;99.90;;;;;;5027602;28;19921;-83
2022/03/12 11:45:47;;;;;;;;;;;17.50;99.90;;;;;;5029822;28;19957;-83
2022/03/12 11:48:13;;;;;;;;;;;18.20;99.90;;;;;;5037539;28;19905;-83
2022/03/12 11:50:39;;;;;;;;;;;17.90;99.90;;;;;;5042523;28;19925;-82
2022/03/12 11:53:04;;;;;;;;;;;17.90;99.90;;;;;;5019932;28;19921;-82
2022/03/12 11:55:32;;;;;;;;;;;18.10;99.90;;;;;;5028317;28;19977;-82
2022/03/12 11:57:59;;;;;;;;;;;18.60;99.90;;;;;;5044449;28;19914;-82
2022/03/12 12:00:25;;;;;;;;;;;18.30;99.90;;;;;;5034213;28;19920;-82
2022/03/12 12:02:52;;;;;;;;;;;17.70;99.90;;;;;;5018749;28;19936;-82
2022/03/12 12:05:19;;;;;;;;;;;17.90;99.90;;;;;;5033822;28;19964;-81
2022/03/12 12:07:45;;;;;;;;;;;18.00;99.90;;;;;;5018365;28;19917;-82
2022/03/12 12:10:12;;;;;;;;;;;18.40;99.90;;;;;;5048784;28;19925;-81
2022/03/12 12:12:37;;;;;;;;;;;18.00;99.90;;;;;;5047529;28;19897;-81
2022/03/12 12:15:05;;;;;;;;;;;18.30;99.90;;;;;;4979076;28;2064271;-82
2022/03/12 12:17:31;;;;;;;;;;;18.20;99.90;;;;;;5036120;28;19901;-81
2022/03/12 12:19:57;;;;;;;;;;;17.80;99.90;;;;;;5044576;28;19977;-82
2022/03/12 12:22:22;;;;;;;;;;;17.90;99.90;;;;;;5052017;28;19917;-82
2022/03/12 12:24:51;;;;;;;;;;;18.60;99.90;;;;;;5038507;28;19908;-82
2022/03/12 12:27:18;;;;;;;;;;;18.70;99.90;;;;;;5045102;28;19913;-82
2022/03/12 12:29:45;;;;;;;;;;;18.20;99.90;;;;;;5038569;28;20118;-81
2022/03/12 12:32:12;;;;;;;;;;;18.30;99.90;;;;;;5051177;28;19901;-81
2022/03/12 12:34:55;;;;;;;;;;;17.90;99.90;;;;;;5052232;28;19908;-81
2022/03/12 12:37:21;;;;;;;;;;;17.90;99.90;;;;;;5041658;28;20078;-82
2022/03/12 12:39:46;;;;;;;;;;;18.10;99.90;;;;;;5028267;28;19940;-80
2022/03/12 12:42:12;;;;;;;;;;;17.50;99.90;;;;;;5041338;28;19908;-81
2022/03/12 12:44:45;;;;;;;;;;;17.60;99.90;;;;;;5048036;28;19912;-81
2022/03/12 12:47:18;;;;;;;;;;;17.70;99.90;;;;;;5038676;28;19928;-80
2022/03/12 12:49:50;;;;;;;;;;;17.60;99.90;;;;;;5040189;28;19909;-81
2022/03/12 12:52:16;;;;;;;;;;;17.70;99.90;;;;;;5024645;28;19943;-83
2022/03/12 12:54:57;;;;;;;;;;;17.90;99.90;;;;;;5018374;28;19909;-83
2022/03/12 12:57:41;;;;;;;;;;;17.60;99.90;;;;;;5012808;28;19917;-84
2022/03/12 13:00:33;;;;;;;;;;;17.60;99.90;;;;;;5015420;28;19917;-83
2022/03/12 13:02:59;;;;;;;;;;;17.80;99.90;;;;;;5039736;28;19905;-83
2022/03/12 13:05:43;;;;;;;;;;;18.10;99.90;;;;;;5034712;28;20262;-83
2022/03/12 13:08:09;;;;;;;;;;;17.90;99.90;;;;;;5010242;28;19905;-83
2022/03/12 13:10:35;;;;;;;;;;;17.90;99.90;;;;;;5024591;28;19929;-83
2022/03/12 13:13:07;;;;;;;;;;;18.10;99.90;;;;;;5026077;28;19910;-84
2022/03/12 13:15:36;;;;;;;;;;;17.90;99.90;;;;;;5040592;28;19917;-83
2022/03/12 13:18:13;;;;;;;;;;;18.30;99.90;;;;;;5041787;28;19905;-83
2022/03/12 13:20:43;;;;;;;;;;;18.50;99.90;;;;;;5042893;28;19927;-84
2022/03/12 13:23:09;;;;;;;;;;;18.30;99.90;;;;;;5044501;28;19932;-83
2022/03/12 13:25:53;;;;;;;;;;;18.30;99.90;;;;;;5045887;28;19958;-82
2022/03/12 13:28:35;;;;;;;;;;;18.20;99.90;;;;;;5009755;28;19909;-81
2022/03/12 13:31:11;;;;;;;;;;;18.40;99.90;;;;;;5029422;28;19940;-82
2022/03/12 13:33:36;;;;;;;;;;;18.60;99.90;;;;;;5035982;28;20299;-81
2022/03/12 13:36:02;;;;;;;;;;;18.70;99.90;;;;;;5036872;28;20004;-81
2022/03/12 13:38:27;;;;;;;;;;;18.80;99.90;;;;;;5044971;28;20277;-80
2022/03/12 13:40:54;;;;;;;;;;;18.20;99.90;;;;;;5031608;28;19909;-85
2022/03/12 13:43:20;;;;;;;;;;;18.60;99.90;;;;;;5039351;28;19902;-84
2022/03/12 13:45:58;;;;;;;;;;;18.60;99.90;;;;;;5041020;28;19933;-84
2022/03/12 13:48:24;;;;;;;;;;;18.60;99.90;;;;;;5051960;28;19901;-85
2022/03/12 13:50:54;;;;;;;;;;;18.50;99.90;;;;;;5049374;28;19913;-83
2022/03/12 13:53:21;;;;;;;;;;;18.60;99.90;;;;;;5021671;28;20297;-83
2022/03/12 13:55:46;;;;;;;;;;;18.50;99.90;;;;;;5022424;28;19916;-83
2022/03/12 13:58:12;;;;;;;;;;;18.20;99.90;;;;;;5055652;28;19956;-86
2022/03/12 14:00:39;;;;;;;;;;;18.10;99.90;;;;;;5040347;28;19909;-84
2022/03/12 14:03:08;;;;;;;;;;;17.90;99.90;;;;;;5031570;28;19910;-85
2022/03/12 14:05:39;;;;;;;;;;;17.70;99.90;;;;;;5032401;28;20422;-84
2022/03/12 14:08:20;;;;;;;;;;;17.80;99.90;;;;;;5045730;28;19916;-83
2022/03/12 14:10:47;;;;;;;;;;;17.80;99.90;;;;;;5022785;28;19924;-83
2022/03/12 14:13:14;;;;;;;;;;;17.60;99.90;;;;;;5013359;28;20043;-82
2022/03/12 14:15:40;;;;;;;;;;;17.80;99.90;;;;;;5016114;28;19906;-85
2022/03/12 14:18:07;;;;;;;;;;;17.90;99.90;;;;;;5015293;28;19910;-83
2022/03/12 14:20:42;;;;;;;;;;;17.80;99.90;;;;;;5016529;28;19906;-83
2022/03/12 14:23:08;;;;;;;;;;;17.80;99.90;;;;;;5010242;28;20004;-82
2022/03/12 14:25:34;;;;;;;;;;;17.80;99.90;;;;;;5008983;28;19913;-83